KPVG Airport Information

Runway Information
Runway 02 Length 3524 ft width 70 ft
Elevation 21 ft Threshold 510 ft Heading 9
Runway 20 Length 3524 ft Width 70 ft
Elevation 20 ft Threshold 440 ft Heading 189
Runway 10 Length 4056 ft width 70 ft
Elevation 20 ft Threshold 0 ft Heading 92
Runway 28 Length 4056 ft Width 70 ft
Elevation 16 ft Threshold 200 ft Heading 272
Airport Frequencies
Type A/D Name NORFOLK AP Frequency 118.9 MHZ
Type AWOS Name AWOS 3 Frequency 118.375 MHZ
Type UNIC Name CTAF/UNICO Frequency 123 MHZ
Airport Navaids
Airport Weather Information & NOTAM
ADDS - METARS form results

(0055 UTC 02 December 2021)
Data provider http://aviationweather.gov/metar/data/
 
METAR text: KPVG 012356Z AUTO 13003KT 10SM CLR 06/03 A3016 RMK AO2 SLP213 T00560033 10167 20050 53006
Conditions at: KPVG (NORFOLK/HAMPTON , VA, US) observed 2356 UTC 01 December 2021
Temperature: 5.6°C (42°F)
Dewpoint: 3.3°C (38°F) [RH = 85%]
Pressure (altimeter): 30.16 inches Hg (1021.4 mb)
[Sea-level pressure: 1021.3 mb]
Winds: from the SE (130 degrees) at 3 MPH (3 knots; 1.5 m/s)
Visibility: 10 or more miles (16+ km)
Ceiling: at least 12,000 feet AGL
Clouds: sky clear below 12,000 feet AGL
Weather: automated observation with no human augmentation;
there may or may not be significant weather present at this time